ADDS METAR Data INFO
IDs: Format: Raw Decoded Include TAF

Data at: 2040 UTC 20 Jul 2018

KMEM 201954Z 19009KT 10SM FEW040 FEW150 SCT250 33/26 A2985 RMK AO2 SLP104 T03330261
KMEM 201854Z 21006KT 10SM FEW040 FEW150 SCT250 33/25 A2987 RMK AO2 SLP109 T03330250
KMEM 201754Z 09003KT 10SM FEW040 SCT150 SCT250 31/26 A2988 RMK AO2 SLP113 60001 T03110261 10311 20250 58010
KMEM 201654Z 19015KT 10SM FEW040 SCT100 BKN150 OVC250 27/26 A2987 RMK AO2 RAB1556E45 PRESFR SLP111 P0001 T02720256
KMEM 201554Z 28009KT 10SM FEW120 BKN180 OVC250 28/25 A2998 RMK AO2 LTG DSNT W AND NW PRESRR SLP149 T02830250
KMEM 201454Z 18006KT 10SM FEW120 SCT200 BKN250 29/24 A2991 RMK AO2 SLP123 T02890244 50000
KMEM 201354Z 22005KT 10SM FEW120 SCT200 BKN250 28/24 A2992 RMK AO2 SLP127 T02780239
KMEM 201254Z 19007KT 10SM FEW200 SCT250 26/23 A2990 RMK AO2 SLP121 T02610233
KMEM 201154Z 17007KT 10SM FEW060 FEW150 SCT250 25/23 A2991 RMK AO2 SLP122 T02500228 10261 20239 53010
KMEM 201054Z 19004KT 10SM FEW050 FEW250 24/21 A2989 RMK AO2 SLP117 T02390211
KMEM 200954Z 17009KT 10SM FEW250 24/21 A2988 RMK AO2 SLP114 T02390211
KMEM 200854Z 19006KT 10SM FEW042 24/21 A2987 RMK AO2 SLP111 T02440211 53001
KMEM 200754Z 20005KT 10SM SCT039 BKN250 24/21 A2987 RMK AO2 SLP109 T02440211
KMEM 200749Z 19006KT 10SM SCT039 BKN250 24/21 A2986 RMK AO2
KMEM 200737Z 19007KT 10SM BKN035 BKN250 25/21 A2987 RMK AO2 T02500206
KMEM 200654Z 17005KT 10SM BKN250 25/22 A2986 RMK AO2 SLP107 T02500222
KMEM 200554Z 17006KT 10SM FEW170 OVC250 26/23 A2987 RMK AO2 SLP110 T02560228 10322 20256 403330239 58007
KMEM 200454Z 20005KT 10SM FEW042 BKN180 BKN250 26/23 A2989 RMK AO2 SLP117 T02560228
KMEM 200354Z 18009KT 10SM FEW042 SCT250 27/22 A2991 RMK AO2 SLP123 T02670217
KMEM 200254Z 17009KT 10SM FEW034 SCT130 BKN250 27/21 A2989 RMK AO2 LTG DSNT SE-SW TSE15 SLP118 T02670206 53021
KMEM 200216Z 12010G18KT 10SM FEW019 SCT035 SCT140 BKN250 27/21 A2987 RMK AO2 LTG DSNT E-SW TSE15 FRQ LTGICCCCG DSNT SE-S CB DSNT SE-S MOV S T02670206
KMEM 200154Z 13013G25KT 10SM TS FEW019 BKN035CB OVC050 28/22 A2987 RMK AO2 LTG DSNT NE-S SLP110 FRQ LTGICCCCG OHD-SE TS OHD-SE MOV SE T02780217
KMEM 200147Z 11015G25KT 10SM TS FEW019 BKN034CB BKN120 OVC250 28/23 A2986 RMK AO2 LTG DSNT NE-S FRQ LTGICCC E-SE TS E-SE MOV SE T02780228
KMEM 200054Z 25005KT 10SM TS FEW040CB SCT180 BKN250 31/25 A2984 RMK AO2 LTG DSNT NE-SE TSB26 SLP101 OCNL LTGICCC E TS E MOV SE T03110250
KMEM 200029Z 23007KT 10SM TS FEW040CB FEW045 SCT250 32/25 A2983 RMK AO2 LTG DSNT NE-SE TSB26 OCNL LTGICCC E TS E MOV SE T03170250
KMEM 192354Z 25006KT 10SM FEW042 FEW140 SCT250 32/26 A2983 RMK AO2 LTG DSNT NE AND SE SLP098 CB DSNT NE-E MOV E T03220256 10333 20317 58010
KMEM 192254Z 22006KT 10SM SCT038 SCT150 BKN250 33/26 A2985 RMK AO2 SLP102 VCSH E T03280256
KMEM 192154Z 20007KT 10SM SCT042 BKN250 32/25 A2985 RMK AO2 SLP104 T03220250
KMEM 192054Z 21006KT 10SM SCT042 BKN250 33/25 A2986 RMK AO2 SLP107 T03330250 58018
KMEM 191954Z VRB06KT 10SM BKN042 BKN250 33/25 A2989 RMK AO2 SLP115 T03280250
KMEM 191854Z VRB03KT 10SM SCT038 SCT250 33/24 A2990 RMK AO2 SLP119 T03280244
KMEM 191754Z VRB03KT 10SM FEW028 SCT090 SCT250 32/24 A2992 RMK AO2 SLP127 T03220244 10322 20244 56007
KMEM 191654Z VRB05KT 10SM FEW028 31/24 A2992 RMK AO2 SLP128 T03110244
KMEM 191554Z 18005KT 10SM FEW040 30/25 A2993 RMK AO2 SLP130 T03000250
KMEM 191454Z 22003KT 10SM FEW180 28/24 A2994 RMK AO2 SLP134 T02830244 50000
KMEM 191354Z 14006KT 10SM SCT180 27/23 A2996 RMK AO2 SLP140 T02670233
KMEM 191254Z 00000KT 10SM SCT180 26/23 A2995 RMK AO2 SLP139 T02560233
KMEM 191154Z 00000KT 10SM SCT160 24/23 A2994 RMK AO2 SLP134 70201 T02440228 10256 20239 53008
KMEM 191054Z 10003KT 10SM FEW180 FEW250 24/23 A2993 RMK AO2 SLP130 T02390228
KMEM 190954Z 05004KT 10SM FEW200 24/23 A2992 RMK AO2 SLP128 T02390228
KMEM 190854Z 12007KT 10SM FEW130 25/22 A2992 RMK AO2 SLP126 T02500222 58009